createdAt,value
2019-02-14T00:01:53.340Z,39.00
2019-02-14T00:04:25.921Z,39.03
2019-02-14T00:07:00.971Z,38.86
2019-02-14T00:09:33.091Z,39.00
2019-02-14T00:12:06.024Z,39.53
2019-02-14T00:14:38.012Z,39.13
2019-02-14T00:17:10.560Z,39.45
2019-02-14T00:20:02.334Z,38.48
2019-02-14T00:22:34.864Z,39.07
2019-02-14T00:25:07.852Z,39.15
2019-02-14T00:27:40.022Z,39.25
2019-02-14T00:30:12.039Z,39.33
2019-02-14T00:32:44.026Z,39.44
2019-02-14T00:35:24.547Z,38.90
2019-02-14T00:37:48.773Z,39.29
2019-02-14T00:40:19.754Z,38.99
2019-02-14T00:42:52.579Z,39.26
2019-02-14T00:45:24.859Z,39.51
2019-02-14T00:47:57.840Z,39.51
2019-02-14T00:50:30.075Z,39.46
2019-02-14T00:53:02.328Z,38.96
2019-02-14T00:55:34.844Z,39.69
2019-02-14T00:58:06.813Z,39.40
2019-02-14T01:00:39.336Z,39.76
2019-02-14T01:03:11.933Z,39.63
2019-02-14T01:05:43.877Z,39.29
2019-02-14T01:08:15.875Z,39.58
2019-02-14T01:10:48.292Z,39.47
2019-02-14T01:13:20.840Z,39.16
2019-02-14T01:15:52.821Z,39.95
2019-02-14T01:18:25.106Z,39.83
2019-02-14T01:20:57.471Z,39.89
2019-02-14T01:23:29.889Z,39.68
2019-02-14T01:26:01.880Z,39.40
2019-02-14T01:28:33.982Z,39.86
2019-02-14T01:31:06.005Z,39.46
2019-02-14T01:33:38.098Z,40.06
2019-02-14T01:36:10.342Z,40.13
2019-02-14T01:38:42.864Z,40.11
2019-02-14T01:41:14.863Z,40.12
2019-02-14T01:43:47.528Z,39.52
2019-02-14T01:46:19.819Z,39.80
2019-02-14T01:48:53.089Z,39.71
2019-02-14T01:51:26.319Z,39.87
2019-02-14T01:53:58.897Z,39.45
2019-02-14T01:56:30.875Z,40.12
2019-02-14T01:59:03.925Z,39.63
2019-02-14T02:01:35.858Z,39.97
2019-02-14T02:04:08.113Z,39.98
2019-02-14T02:06:41.343Z,39.83
2019-02-14T02:09:13.900Z,39.82
2019-02-14T02:11:45.951Z,39.70
2019-02-14T02:14:17.886Z,39.78
2019-02-14T02:16:50.290Z,39.53
2019-02-14T02:19:22.575Z,39.56
2019-02-14T02:21:54.840Z,39.57
2019-02-14T02:24:27.331Z,39.39
2019-02-14T02:26:59.465Z,39.27
2019-02-14T02:29:31.908Z,39.83
2019-02-14T02:32:03.838Z,40.13
2019-02-14T02:34:35.902Z,40.10
2019-02-14T02:37:07.891Z,39.97
2019-02-14T02:39:40.333Z,40.20
2019-02-14T02:42:12.879Z,40.07
2019-02-14T02:44:45.403Z,40.20
2019-02-14T02:47:17.845Z,39.85
2019-02-14T02:49:49.857Z,39.70
2019-02-14T02:52:21.855Z,39.31
2019-02-14T02:54:53.885Z,40.24
2019-02-14T02:57:26.015Z,39.84
2019-02-14T02:59:58.563Z,40.31
2019-02-14T03:02:30.814Z,40.27
2019-02-14T03:05:03.143Z,39.67
2019-02-14T03:07:35.864Z,40.05
2019-02-14T03:10:09.333Z,39.71
2019-02-14T03:12:41.702Z,39.82
2019-02-14T03:15:15.059Z,40.04
2019-02-14T03:17:47.115Z,40.04
2019-02-14T03:20:19.843Z,39.79
2019-02-14T03:22:51.865Z,40.20
2019-02-14T03:25:23.878Z,39.99
2019-02-14T03:27:55.875Z,40.50
2019-02-14T03:30:28.336Z,40.02
2019-02-14T03:33:00.880Z,40.18
2019-02-14T03:35:32.888Z,40.20
2019-02-14T03:38:04.885Z,40.50
2019-02-14T03:40:37.692Z,39.88
2019-02-14T03:43:09.871Z,39.81
2019-02-14T03:45:42.023Z,39.81
2019-02-14T03:48:13.836Z,39.73
2019-02-14T03:50:45.904Z,39.83
2019-02-14T03:53:17.855Z,39.42
2019-02-14T03:55:49.830Z,39.89
2019-02-14T03:58:21.843Z,39.88
2019-02-14T04:00:53.859Z,40.15
2019-02-14T04:03:25.864Z,40.11
2019-02-14T04:05:58.342Z,40.02
2019-02-14T04:08:30.386Z,39.79
2019-02-14T04:11:04.130Z,39.97
2019-02-14T04:13:36.532Z,39.65
2019-02-14T04:16:08.828Z,39.97
2019-02-14T04:18:41.338Z,40.07
2019-02-14T04:21:14.295Z,39.98
2019-02-14T04:23:46.835Z,40.05
2019-02-14T04:26:18.833Z,39.89
2019-02-14T04:28:51.341Z,40.15
2019-02-14T04:31:23.405Z,39.82
2019-02-14T04:33:55.846Z,39.91
2019-02-14T04:36:35.606Z,39.67
2019-02-14T04:39:01.835Z,40.18
2019-02-14T04:41:33.883Z,40.18
2019-02-14T04:44:05.848Z,40.37
2019-02-14T04:46:38.442Z,40.32
2019-02-14T04:49:10.820Z,40.33
2019-02-14T04:51:42.888Z,39.87
2019-02-14T04:54:15.345Z,40.25
2019-02-14T04:56:48.042Z,40.13
2019-02-14T04:59:20.944Z,40.18
2019-02-14T05:01:53.508Z,40.10
2019-02-14T05:04:27.012Z,40.47
2019-02-14T05:06:59.526Z,40.13
2019-02-14T05:09:32.049Z,39.63
2019-02-14T05:12:05.073Z,39.63
2019-02-14T05:14:37.918Z,39.95
2019-02-14T05:17:10.339Z,40.41
2019-02-14T05:22:00.841Z,40.12
2019-02-14T05:24:33.051Z,40.21
2019-02-14T05:27:05.338Z,39.92
2019-02-14T05:29:37.845Z,40.61
2019-02-14T05:32:09.979Z,40.31
2019-02-14T05:34:41.907Z,40.24
2019-02-14T05:37:14.322Z,39.95
2019-02-14T05:39:47.116Z,39.47
2019-02-14T05:42:19.458Z,39.12
2019-02-14T05:44:51.847Z,40.05
2019-02-14T05:47:23.827Z,40.07
2019-02-14T05:49:56.018Z,40.13
2019-02-14T05:52:28.871Z,40.02
2019-02-14T05:55:00.832Z,39.96
2019-02-14T05:57:32.891Z,40.53
2019-02-14T06:00:04.874Z,39.81
2019-02-14T06:02:37.347Z,39.85
2019-02-14T06:05:09.867Z,39.81
2019-02-14T06:07:41.876Z,40.31
2019-02-14T06:10:13.898Z,39.98
2019-02-14T06:12:45.927Z,40.64
2019-02-14T06:15:17.828Z,40.18
2019-02-14T06:17:50.110Z,39.61
2019-02-14T06:20:22.336Z,40.22
2019-02-14T06:22:54.909Z,40.73
2019-02-14T06:25:27.039Z,40.19
2019-02-14T06:27:59.056Z,40.64
2019-02-14T06:30:31.327Z,40.57
2019-02-14T06:33:04.134Z,40.05
2019-02-14T06:35:37.002Z,39.87
2019-02-14T06:38:08.885Z,40.27
2019-02-14T06:40:40.864Z,39.21
2019-02-14T06:43:12.853Z,40.18
2019-02-14T06:45:45.335Z,40.62
2019-02-14T06:48:17.933Z,40.30
2019-02-14T06:50:49.929Z,40.30
2019-02-14T06:53:21.830Z,40.09
2019-02-14T06:55:54.811Z,40.23
2019-02-14T06:58:27.286Z,40.16
2019-02-14T07:00:59.884Z,40.25
2019-02-14T07:03:31.877Z,40.06
2019-02-14T07:06:03.913Z,39.89
2019-02-14T07:08:35.857Z,39.87
2019-02-14T07:11:08.003Z,40.09
2019-02-14T07:13:40.336Z,40.03
2019-02-14T07:16:12.332Z,40.11
2019-02-14T07:18:44.840Z,40.13
2019-02-14T07:21:16.820Z,39.70
2019-02-14T07:23:48.874Z,40.03
2019-02-14T07:26:21.410Z,39.83
2019-02-14T07:28:54.043Z,39.94
2019-02-14T07:31:26.892Z,40.14
2019-02-14T07:34:00.338Z,39.97
2019-02-14T07:36:33.099Z,39.99
2019-02-14T07:39:07.391Z,40.18
2019-02-14T07:41:40.023Z,39.39
2019-02-14T07:44:12.908Z,39.90
2019-02-14T07:46:45.442Z,40.12
2019-02-14T07:49:18.127Z,40.17
2019-02-14T07:51:50.904Z,39.64
2019-02-14T07:54:23.766Z,40.05
2019-02-14T07:56:55.295Z,40.17
2019-02-14T07:59:28.095Z,40.02
2019-02-14T08:02:00.919Z,39.68
2019-02-14T08:04:34.436Z,39.54
2019-02-14T08:07:07.111Z,40.09
2019-02-14T08:09:40.108Z,40.09
2019-02-14T08:12:13.113Z,39.69
2019-02-14T08:14:46.122Z,40.01
2019-02-14T08:17:19.010Z,39.74
2019-02-14T08:19:51.925Z,39.46
2019-02-14T08:22:25.016Z,39.94
2019-02-14T08:24:57.862Z,39.53
2019-02-14T08:27:30.468Z,39.78
2019-02-14T08:30:03.338Z,39.63
2019-02-14T08:32:36.089Z,39.59
2019-02-14T08:35:09.335Z,38.82
2019-02-14T08:37:45.742Z,39.50
2019-02-14T08:40:22.429Z,38.13
2019-02-14T08:42:55.156Z,39.74
2019-02-14T08:45:28.129Z,39.26
2019-02-14T08:48:01.034Z,39.59
2019-02-14T08:50:34.024Z,38.59
2019-02-14T08:53:07.742Z,38.99
2019-02-14T08:55:39.281Z,38.75
2019-02-14T08:58:12.092Z,38.96
2019-02-14T09:00:45.304Z,39.45
2019-02-14T09:03:18.104Z,39.00
2019-02-14T09:05:51.115Z,39.17
2019-02-14T09:08:24.048Z,39.01
2019-02-14T09:10:57.065Z,39.19
2019-02-14T09:13:30.092Z,39.21
2019-02-14T09:16:03.329Z,39.50
2019-02-14T09:18:36.091Z,39.37
2019-02-14T09:21:08.898Z,38.93
2019-02-14T09:23:41.321Z,38.90
2019-02-14T09:26:14.151Z,39.08
2019-02-14T09:28:47.091Z,39.09
2019-02-14T09:31:19.894Z,39.02
2019-02-14T09:33:52.558Z,38.55
2019-02-14T09:36:25.110Z,38.37
2019-02-14T09:38:58.006Z,38.47
2019-02-14T09:41:30.477Z,37.86
2019-02-14T09:44:03.325Z,38.81
2019-02-14T09:46:36.073Z,38.70
2019-02-14T09:49:08.919Z,39.32
2019-02-14T09:51:41.329Z,38.92
2019-02-14T09:54:13.998Z,38.58
2019-02-14T09:56:46.853Z,38.57
2019-02-14T09:59:19.603Z,38.58
2019-02-14T10:01:52.352Z,38.69
2019-02-14T10:04:25.113Z,38.69
2019-02-14T10:06:57.932Z,39.68
2019-02-14T10:09:31.038Z,38.86
2019-02-14T10:12:04.075Z,38.68
2019-02-14T10:14:37.068Z,38.85
2019-02-14T10:17:09.879Z,38.76
2019-02-14T10:19:42.370Z,38.94
2019-02-14T10:22:15.097Z,39.23
2019-02-14T10:24:47.870Z,39.03
2019-02-14T10:27:20.500Z,39.22
2019-02-14T10:29:53.099Z,39.40
2019-02-14T10:32:25.981Z,38.88
2019-02-14T10:34:58.381Z,39.21
2019-02-14T10:37:31.056Z,39.24
2019-02-14T10:40:07.846Z,38.81
2019-02-14T10:42:40.975Z,39.09
2019-02-14T10:45:17.370Z,38.31
2019-02-14T10:47:52.396Z,38.89
2019-02-14T10:50:25.047Z,38.88
2019-02-14T10:52:59.092Z,39.26
2019-02-14T10:55:31.893Z,39.18
2019-02-14T10:58:04.361Z,39.09
2019-02-14T11:00:37.527Z,39.03
2019-02-14T11:03:10.024Z,39.39
2019-02-14T11:05:42.514Z,38.83
2019-02-14T11:08:15.054Z,39.24
2019-02-14T11:10:47.897Z,38.77
2019-02-14T11:13:20.371Z,39.15
2019-02-14T11:15:53.096Z,38.58
2019-02-14T11:18:25.970Z,38.59
2019-02-14T11:20:58.543Z,38.70
2019-02-14T11:23:31.095Z,38.81
2019-02-14T11:26:03.897Z,38.64
2019-02-14T11:28:35.840Z,38.68
2019-02-14T11:31:08.322Z,38.70
2019-02-14T11:33:40.892Z,38.73
2019-02-14T11:36:13.323Z,39.01
2019-02-14T11:38:45.864Z,38.76
2019-02-14T11:41:17.831Z,38.67
2019-02-14T11:43:49.824Z,38.91
2019-02-14T11:46:21.836Z,38.54
2019-02-14T11:48:53.785Z,38.65
2019-02-14T11:51:26.007Z,38.53
2019-02-14T11:56:39.489Z,38.60
2019-02-14T11:59:12.055Z,38.58
2019-02-14T12:01:44.090Z,38.41
2019-02-14T12:04:16.587Z,38.48
2019-02-14T12:06:49.441Z,38.45
2019-02-14T12:09:21.897Z,38.47
2019-02-14T12:11:53.987Z,38.47
2019-02-14T12:14:26.082Z,38.62
2019-02-14T12:16:58.335Z,38.54
2019-02-14T12:19:30.878Z,38.94
2019-02-14T12:22:02.910Z,38.65
2019-02-14T12:24:38.865Z,38.55
2019-02-14T12:27:10.964Z,38.50
2019-02-14T12:29:42.898Z,38.59
2019-02-14T12:32:14.842Z,38.67
2019-02-14T12:34:47.335Z,38.25
2019-02-14T12:37:19.623Z,38.20
2019-02-14T12:39:52.108Z,38.47
2019-02-14T12:42:24.725Z,38.47
2019-02-14T12:44:57.168Z,38.42
2019-02-14T12:47:29.388Z,38.48
2019-02-14T12:50:01.916Z,38.09
2019-02-14T12:52:34.102Z,38.34
2019-02-14T12:55:07.360Z,38.32
2019-02-14T12:57:40.031Z,38.02
2019-02-14T13:00:20.848Z,38.42
2019-02-14T13:02:52.885Z,38.16
2019-02-14T13:05:24.956Z,38.12
2019-02-14T13:07:56.905Z,38.13
2019-02-14T13:10:29.054Z,38.33
2019-02-14T13:13:01.450Z,38.34
2019-02-14T13:15:33.991Z,38.52
2019-02-14T13:18:06.827Z,38.07
2019-02-14T13:20:38.851Z,38.10
2019-02-14T13:23:10.838Z,38.43
2019-02-14T13:25:42.905Z,38.30
2019-02-14T13:28:14.860Z,38.17
2019-02-14T13:30:46.965Z,37.92
2019-02-14T13:33:19.328Z,37.83
2019-02-14T13:35:51.639Z,38.32
2019-02-14T13:38:23.846Z,38.13
2019-02-14T13:40:55.881Z,38.13
2019-02-14T13:43:28.390Z,37.99
2019-02-14T13:46:01.348Z,38.25
2019-02-14T13:48:34.040Z,37.73
2019-02-14T13:51:06.319Z,38.07
2019-02-14T13:53:38.514Z,37.97
2019-02-14T13:56:10.520Z,38.05
2019-02-14T13:58:42.839Z,38.18
2019-02-14T14:01:14.884Z,38.13
2019-02-14T14:03:47.042Z,37.79
2019-02-14T14:06:19.305Z,38.13
2019-02-14T14:08:52.051Z,38.03
2019-02-14T14:11:24.109Z,38.16
2019-02-14T14:13:56.360Z,38.14
2019-02-14T14:16:29.344Z,38.35
2019-02-14T14:19:06.335Z,38.34
2019-02-14T14:21:36.356Z,37.60
2019-02-14T14:24:08.889Z,38.18
2019-02-14T14:26:41.312Z,37.90
2019-02-14T14:29:13.877Z,38.38
2019-02-14T14:31:46.042Z,38.04
2019-02-14T14:34:18.324Z,38.41
2019-02-14T14:36:50.579Z,38.18
2019-02-14T14:39:22.806Z,38.26
2019-02-14T14:41:54.844Z,38.26
2019-02-14T14:44:41.410Z,38.05
2019-02-14T14:47:19.734Z,38.07
2019-02-14T14:49:50.711Z,37.95
2019-02-14T14:52:21.700Z,38.08
2019-02-14T14:54:53.842Z,38.12
2019-02-14T14:57:26.052Z,38.35
2019-02-14T14:59:58.158Z,38.22
2019-02-14T15:02:30.409Z,37.69
2019-02-14T15:05:02.841Z,37.87
2019-02-14T15:07:35.036Z,38.13
2019-02-14T15:10:07.319Z,38.01
2019-02-14T15:12:40.426Z,37.97
2019-02-14T15:15:12.440Z,37.86
2019-02-14T15:17:45.013Z,37.85
2019-02-14T15:20:16.825Z,37.60
2019-02-14T15:22:49.818Z,37.72
2019-02-14T15:25:21.869Z,35.28
2019-02-14T15:27:53.857Z,35.10
2019-02-14T15:30:25.910Z,34.41
2019-02-14T15:32:57.870Z,33.71
2019-02-14T15:35:29.960Z,33.07
2019-02-14T15:38:02.091Z,33.07
2019-02-14T15:40:34.287Z,32.72
2019-02-14T15:43:06.639Z,32.02
2019-02-14T15:45:39.289Z,31.74
2019-02-14T15:48:11.758Z,31.74
2019-02-14T15:50:42.688Z,31.52
2019-02-14T15:53:16.941Z,31.62
2019-02-14T15:55:48.811Z,31.34
2019-02-14T15:58:20.863Z,31.34
2019-02-14T16:00:54.104Z,31.37
2019-02-14T16:03:26.487Z,31.29
2019-02-14T16:05:58.843Z,31.28
2019-02-14T16:08:32.343Z,31.20
2019-02-14T16:11:04.875Z,31.77
2019-02-14T16:13:37.332Z,31.94
2019-02-14T16:16:10.326Z,31.65
2019-02-14T16:18:42.438Z,32.10
2019-02-14T16:21:14.921Z,31.39
2019-02-14T16:23:46.855Z,31.66
2019-02-14T16:26:18.880Z,31.40
2019-02-14T16:28:51.616Z,31.33
2019-02-14T16:31:23.892Z,31.73
2019-02-14T16:33:55.872Z,31.73
2019-02-14T16:36:28.315Z,31.80
2019-02-14T16:39:01.368Z,31.42
2019-02-14T16:41:33.850Z,32.40
2019-02-14T16:44:06.326Z,32.40
2019-02-14T16:46:38.281Z,32.05
2019-02-14T16:49:10.840Z,32.51
2019-02-14T16:51:42.795Z,32.58
2019-02-14T16:54:14.849Z,32.58
2019-02-14T16:56:46.825Z,32.70
2019-02-14T16:59:18.787Z,32.76
2019-02-14T17:01:50.881Z,33.42
2019-02-14T17:04:22.858Z,33.68
2019-02-14T17:06:57.866Z,33.73
2019-02-14T17:09:29.794Z,36.28
2019-02-14T17:12:01.834Z,36.08
2019-02-14T17:14:33.813Z,35.88
2019-02-14T17:17:05.837Z,36.50
2019-02-14T17:19:37.816Z,37.12
2019-02-14T17:22:10.498Z,36.29
2019-02-14T17:24:42.788Z,36.60
2019-02-14T17:27:15.332Z,36.60
2019-02-14T17:29:47.881Z,36.85
2019-02-14T17:32:20.418Z,36.23
2019-02-14T17:34:52.868Z,36.75
2019-02-14T17:37:25.323Z,36.14
2019-02-14T17:39:57.711Z,36.75
2019-02-14T17:42:28.968Z,36.76
2019-02-14T17:45:01.325Z,37.13
2019-02-14T17:47:33.815Z,36.35
2019-02-14T17:50:06.002Z,36.44
2019-02-14T17:52:38.294Z,36.76
2019-02-14T17:55:10.856Z,36.07
2019-02-14T17:57:43.359Z,36.86
2019-02-14T18:00:16.099Z,35.76
2019-02-14T18:02:48.325Z,36.29
2019-02-14T18:05:21.285Z,36.75
2019-02-14T18:07:54.362Z,37.40
2019-02-14T18:10:26.867Z,36.25
2019-02-14T18:12:59.289Z,37.46
2019-02-14T18:15:31.838Z,36.54
2019-02-14T18:18:04.401Z,37.86
2019-02-14T18:20:39.503Z,37.31
2019-02-14T18:23:11.881Z,37.26
2019-02-14T18:25:43.907Z,37.95
2019-02-14T18:28:15.836Z,37.48
2019-02-14T18:30:47.885Z,38.12
2019-02-14T18:33:20.318Z,36.97
2019-02-14T18:35:52.554Z,37.61
2019-02-14T18:38:24.816Z,38.46
2019-02-14T18:41:03.905Z,37.74
2019-02-14T18:43:31.320Z,38.09
2019-02-14T18:46:04.039Z,36.08
2019-02-14T18:48:36.471Z,35.09
2019-02-14T18:51:09.424Z,34.18
2019-02-14T18:53:42.089Z,34.38
2019-02-14T18:56:14.510Z,33.46
2019-02-14T18:58:46.895Z,33.01
2019-02-14T19:01:18.918Z,32.97
2019-02-14T19:03:50.865Z,33.06
2019-02-14T19:06:23.409Z,32.89
2019-02-14T19:08:55.820Z,32.94
2019-02-14T19:11:28.329Z,33.13
2019-02-14T19:14:00.778Z,33.35
2019-02-14T19:16:32.844Z,33.75
2019-02-14T19:19:04.863Z,33.49
2019-02-14T19:21:37.093Z,33.56
2019-02-14T19:24:09.385Z,34.06
2019-02-14T19:26:41.865Z,33.51
2019-02-14T19:29:13.813Z,33.92
2019-02-14T19:31:45.859Z,34.45
2019-02-14T19:34:18.312Z,34.50
2019-02-14T19:36:50.600Z,34.90
2019-02-14T19:39:22.825Z,37.15
2019-02-14T19:42:17.261Z,36.87
2019-02-14T19:44:49.362Z,37.99
2019-02-14T19:47:21.298Z,36.94
2019-02-14T19:49:53.273Z,37.66
2019-02-14T19:52:25.252Z,37.57
2019-02-14T19:54:59.293Z,37.40
2019-02-14T20:00:15.891Z,37.88
2019-02-14T20:02:47.900Z,38.05
2019-02-14T20:05:20.318Z,37.65
2019-02-14T20:07:52.768Z,38.17
2019-02-14T20:10:24.810Z,37.58
2019-02-14T20:12:56.809Z,37.87
2019-02-14T20:15:36.701Z,38.46
2019-02-14T20:18:02.841Z,37.96
2019-02-14T20:20:34.840Z,37.96
2019-02-14T20:23:06.888Z,38.74
2019-02-14T20:25:38.801Z,38.42
2019-02-14T20:28:10.854Z,37.90
2019-02-14T20:30:42.816Z,38.49
2019-02-14T20:33:15.305Z,38.98
2019-02-14T20:35:48.405Z,38.91
2019-02-14T20:38:20.827Z,38.47
2019-02-14T20:40:52.860Z,38.53
2019-02-14T20:43:25.374Z,38.54
2019-02-14T20:45:57.553Z,38.69
2019-02-14T20:48:29.840Z,38.86
2019-02-14T20:51:01.930Z,38.74
2019-02-14T20:53:34.309Z,38.62
2019-02-14T20:56:06.837Z,38.25
2019-02-14T20:58:38.913Z,38.99
2019-02-14T21:01:11.596Z,38.90
2019-02-14T21:03:44.026Z,39.31
2019-02-14T21:06:16.363Z,39.31
2019-02-14T21:08:48.807Z,38.98
2019-02-14T21:11:21.309Z,38.84
2019-02-14T21:13:53.824Z,38.95
2019-02-14T21:16:25.854Z,39.42
2019-02-14T21:18:58.332Z,39.19
2019-02-14T21:21:30.464Z,39.16
2019-02-14T21:24:02.536Z,38.74
2019-02-14T21:26:34.843Z,38.68
2019-02-14T21:29:08.433Z,38.68
2019-02-14T21:31:40.891Z,38.91
2019-02-14T21:34:13.409Z,39.53
2019-02-14T21:36:45.473Z,39.54
2019-02-14T21:39:18.397Z,39.45
2019-02-14T21:41:50.829Z,39.45
2019-02-14T21:44:23.277Z,39.34
2019-02-14T21:46:55.362Z,39.48
2019-02-14T21:49:27.834Z,39.23
2019-02-14T21:52:00.446Z,39.69
2019-02-14T21:54:33.425Z,39.34
2019-02-14T21:57:06.069Z,39.32
2019-02-14T21:59:38.371Z,39.37
2019-02-14T22:02:10.900Z,39.36
2019-02-14T22:04:43.340Z,39.36
2019-02-14T22:07:16.590Z,39.35
2019-02-14T22:09:48.886Z,39.47
2019-02-14T22:12:38.321Z,39.32
2019-02-14T22:14:55.044Z,39.60
2019-02-14T22:17:27.454Z,39.34
2019-02-14T22:19:59.893Z,39.06
2019-02-14T22:22:32.405Z,39.51
2019-02-14T22:25:05.054Z,39.81
2019-02-14T22:27:37.912Z,39.26
2019-02-14T22:30:14.410Z,37.90
2019-02-14T22:32:46.989Z,39.65
2019-02-14T22:35:19.058Z,38.98
2019-02-14T22:37:51.904Z,39.42
2019-02-14T22:40:24.106Z,39.06
2019-02-14T22:42:56.542Z,39.40
2019-02-14T22:45:28.822Z,39.16
2019-02-14T22:48:01.104Z,39.16
2019-02-14T22:50:34.353Z,39.38
2019-02-14T22:53:07.338Z,39.61
2019-02-14T22:55:39.836Z,39.73
2019-02-14T22:58:12.013Z,39.65
2019-02-14T23:00:50.863Z,39.74
2019-02-14T23:03:23.022Z,39.66
2019-02-14T23:05:55.369Z,39.82
2019-02-14T23:08:27.885Z,39.44
2019-02-14T23:11:00.872Z,39.30
2019-02-14T23:13:32.972Z,39.27
2019-02-14T23:16:05.902Z,39.03
2019-02-14T23:18:38.378Z,39.31
2019-02-14T23:21:10.836Z,39.45
2019-02-14T23:23:42.819Z,39.30
2019-02-14T23:26:14.853Z,39.79
2019-02-14T23:28:46.812Z,39.97
2019-02-14T23:31:40.378Z,39.98
2019-02-14T23:34:12.555Z,39.99
2019-02-14T23:36:45.565Z,39.82
2019-02-14T23:39:18.339Z,39.66
2019-02-14T23:41:51.088Z,39.92
2019-02-14T23:44:24.332Z,40.12
2019-02-14T23:46:56.842Z,39.98
2019-02-14T23:49:29.868Z,39.85
2019-02-14T23:52:02.208Z,39.58
2019-02-14T23:54:36.174Z,39.45
2019-02-14T23:57:08.899Z,39.17
2019-02-14T23:59:41.016Z,39.80
